Forside
METAR-TAF:

METAR-TAF

Lufthavne :

Hagåtña, Guam, USA

Breddekreds: 13-29N, længdekreds: 144-48E, højde: 91 m

Aktuelle vejr

Denne rapport blev lavet for 30 minutter siden, kl. 08:54 UTC
Vind 4 kt fra sydvest
Temperatur 29°C
Fugtighed 84%
Tryk 1008 hPa
Sigt: 16.1 km
skyfri

METAR: PGUM 230854Z 23004KT 10SM CLR 29/26 A2978 RMK AO2 SLP076 T02890261 53014

Tid: 19:24 (09:24 UTC)

Vejrudsigter

Denne rapport blev lavet for 4 timer og 4 minutter siden, kl. 05:20 UTC
Foreløbig gælder fra 23 på 06 UTC til 24 på 12 UTC
Vind 7 kt fra vest
Sigt: 10 km
Spredte skyer i en højde af 2800 ft
byger i nærheden

TAF: PGUM 230520Z 2306/2412 26007KT P6SM VCSH SCT028

Vejrobservationer og prognoser fra mere end 4000 lufthavne (METAR og TAF).

De gule og røde prikker repræsenterer de meteorologiske stationer.

Flyt musen over at se navnet på stationen.

Så klik over at se vejr observationer og prognoser.

At skifte det kort: Klik på de grønne knapper med et sort kors for at zoome ind; på den grønne knap med en bindestreg for at zoome ud; eller på de grønne pile for tilstødende kort.


METAR-TAF: